createdAt,value
2019-03-08T00:00:19.804Z,18.50
2019-03-08T00:02:47.940Z,18.50
2019-03-08T00:05:15.783Z,18.80
2019-03-08T00:07:43.170Z,16.97
2019-03-08T00:10:10.875Z,18.40
2019-03-08T00:12:38.362Z,17.80
2019-03-08T00:15:06.249Z,17.57
2019-03-08T00:17:33.775Z,16.77
2019-03-08T00:20:01.205Z,18.27
2019-03-08T00:22:28.835Z,17.90
2019-03-08T00:24:56.285Z,17.20
2019-03-08T00:27:23.772Z,16.83
2019-03-08T00:29:51.149Z,15.63
2019-03-08T00:32:18.551Z,17.20
2019-03-08T00:34:46.021Z,18.33
2019-03-08T00:37:13.488Z,17.47
2019-03-08T00:39:40.980Z,17.93
2019-03-08T00:42:08.425Z,18.33
2019-03-08T00:44:35.872Z,17.97
2019-03-08T00:47:03.319Z,17.90
2019-03-08T00:49:30.752Z,17.57
2019-03-08T00:51:58.232Z,17.80
2019-03-08T00:54:26.004Z,18.33
2019-03-08T00:56:53.569Z,18.83
2019-03-08T00:59:21.071Z,18.57
2019-03-08T01:01:48.506Z,17.70
2019-03-08T01:04:15.917Z,17.27
2019-03-08T01:06:43.373Z,17.47
2019-03-08T01:09:10.909Z,17.67
2019-03-08T01:11:38.470Z,17.90
2019-03-08T01:14:05.834Z,18.50
2019-03-08T01:16:33.290Z,16.70
2019-03-08T01:19:00.732Z,14.90
2019-03-08T01:21:28.545Z,14.70
2019-03-08T01:23:55.996Z,13.53
2019-03-08T01:26:23.404Z,14.13
2019-03-08T01:28:50.864Z,12.80
2019-03-08T01:31:18.333Z,12.10
2019-03-08T01:33:45.889Z,11.93
2019-03-08T01:36:13.502Z,13.33
2019-03-08T01:38:40.943Z,12.10
2019-03-08T01:41:08.397Z,11.77
2019-03-08T01:43:36.023Z,12.43
2019-03-08T01:46:03.659Z,13.00
2019-03-08T01:48:31.081Z,11.80
2019-03-08T01:50:58.599Z,12.97
2019-03-08T01:53:26.182Z,10.90
2019-03-08T01:55:53.664Z,12.73
2019-03-08T01:58:21.202Z,11.93
2019-03-08T02:00:48.807Z,12.93
2019-03-08T02:03:17.223Z,13.20
2019-03-08T02:05:44.843Z,12.17
2019-03-08T02:08:12.303Z,13.17
2019-03-08T02:10:39.773Z,11.97
2019-03-08T02:13:07.282Z,11.60
2019-03-08T02:15:34.961Z,14.97
2019-03-08T02:18:02.544Z,14.57
2019-03-08T02:20:29.959Z,14.83
2019-03-08T02:22:57.397Z,16.90
2019-03-08T02:25:24.853Z,14.47
2019-03-08T02:27:52.336Z,18.30
2019-03-08T02:30:19.949Z,13.00
2019-03-08T02:32:47.392Z,13.13
2019-03-08T02:35:16.943Z,17.37
2019-03-08T02:37:44.330Z,12.10
2019-03-08T02:40:34.540Z,14.93
2019-03-08T02:43:03.420Z,13.50
2019-03-08T02:45:31.178Z,12.27
2019-03-08T02:47:58.773Z,14.67
2019-03-08T02:50:26.244Z,15.13
2019-03-08T02:52:53.624Z,13.53
2019-03-08T02:55:21.213Z,11.63
2019-03-08T02:57:49.100Z,16.10
2019-03-08T03:00:17.283Z,12.87
2019-03-08T03:02:44.776Z,15.87
2019-03-08T03:05:12.683Z,18.07
2019-03-08T03:07:40.181Z,20.80
2019-03-08T03:10:07.928Z,19.20
2019-03-08T03:12:35.757Z,14.80
2019-03-08T03:15:03.399Z,14.37
2019-03-08T03:17:30.844Z,13.57
2019-03-08T03:19:58.289Z,16.07
2019-03-08T03:22:25.648Z,14.70
2019-03-08T03:24:53.230Z,14.17
2019-03-08T03:27:20.705Z,13.23
2019-03-08T03:29:48.154Z,13.07
2019-03-08T03:32:15.616Z,12.13
2019-03-08T03:34:43.056Z,17.03
2019-03-08T03:37:10.747Z,17.93
2019-03-08T03:39:38.218Z,21.40
2019-03-08T03:42:05.699Z,23.40
2019-03-08T03:44:33.120Z,20.93
2019-03-08T03:47:01.202Z,22.37
2019-03-08T03:49:28.651Z,22.37
2019-03-08T03:51:56.100Z,22.43
2019-03-08T03:54:23.571Z,19.17
2019-03-08T03:56:51.025Z,17.83
2019-03-08T03:59:18.455Z,19.97
2019-03-08T04:01:48.879Z,22.00
2019-03-08T04:04:16.362Z,20.13
2019-03-08T04:06:43.804Z,18.57
2019-03-08T04:09:12.021Z,18.43
2019-03-08T04:11:39.718Z,17.50
2019-03-08T04:14:07.119Z,15.67
2019-03-08T04:16:34.794Z,18.20
2019-03-08T04:19:02.273Z,16.00
2019-03-08T04:21:29.641Z,14.13
2019-03-08T04:23:57.296Z,12.90
2019-03-08T04:26:24.769Z,11.87
2019-03-08T04:28:52.574Z,11.33
2019-03-08T04:31:20.013Z,10.60
2019-03-08T04:33:47.654Z,10.33
2019-03-08T04:36:15.075Z,11.17
2019-03-08T04:38:42.557Z,10.97
2019-03-08T04:41:09.999Z,10.80
2019-03-08T04:43:37.385Z,10.00
2019-03-08T04:46:04.905Z,10.50
2019-03-08T04:48:32.480Z,9.83
2019-03-08T04:50:59.964Z,10.40
2019-03-08T04:53:27.380Z,8.83
2019-03-08T04:55:54.806Z,10.87
2019-03-08T04:58:22.267Z,9.27
2019-03-08T05:00:49.633Z,9.60
2019-03-08T05:03:17.245Z,9.17
2019-03-08T05:05:45.091Z,9.30
2019-03-08T05:08:12.641Z,9.57
2019-03-08T05:10:40.383Z,9.63
2019-03-08T05:13:07.825Z,8.67
2019-03-08T05:15:35.244Z,9.27
2019-03-08T05:18:02.677Z,10.27
2019-03-08T05:20:30.156Z,10.47
2019-03-08T05:22:58.578Z,10.87
2019-03-08T05:25:26.025Z,9.83
2019-03-08T05:27:53.483Z,12.43
2019-03-08T05:30:20.923Z,12.83
2019-03-08T05:32:48.638Z,15.20
2019-03-08T05:35:16.038Z,31.20
2019-03-08T05:37:43.608Z,32.40
2019-03-08T05:40:11.300Z,30.53
2019-03-08T05:42:38.929Z,25.10
2019-03-08T05:45:07.712Z,29.13
2019-03-08T05:47:35.381Z,28.47
2019-03-08T05:50:03.268Z,29.67
2019-03-08T05:52:30.765Z,31.83
2019-03-08T05:54:58.574Z,29.93
2019-03-08T05:57:26.310Z,28.70
2019-03-08T05:59:53.811Z,31.00
2019-03-08T06:02:21.244Z,30.63
2019-03-08T06:04:49.009Z,28.53
2019-03-08T06:07:16.513Z,27.57
2019-03-08T06:09:44.120Z,28.73
2019-03-08T06:12:11.912Z,30.17
2019-03-08T06:14:39.372Z,29.40
2019-03-08T06:17:06.869Z,30.37
2019-03-08T06:19:34.319Z,30.50
2019-03-08T06:22:01.709Z,28.27
2019-03-08T06:24:29.232Z,30.97
2019-03-08T06:26:56.672Z,29.57
2019-03-08T06:29:24.363Z,28.73
2019-03-08T06:31:51.729Z,28.70
2019-03-08T06:34:19.197Z,27.27
2019-03-08T06:36:46.722Z,28.80
2019-03-08T06:39:14.107Z,28.97
2019-03-08T06:41:41.613Z,29.40
2019-03-08T06:44:09.052Z,29.40
2019-03-08T06:46:36.801Z,28.97
2019-03-08T06:49:04.306Z,28.70
2019-03-08T06:51:31.738Z,26.93
2019-03-08T06:53:59.218Z,26.47
2019-03-08T06:56:26.652Z,27.60
2019-03-08T06:59:02.844Z,25.73
2019-03-08T07:01:33.805Z,24.37
2019-03-08T07:04:01.272Z,24.47
2019-03-08T07:06:29.007Z,27.83
2019-03-08T07:08:56.555Z,25.60
2019-03-08T07:11:23.954Z,27.17
2019-03-08T07:13:51.429Z,26.83
2019-03-08T07:16:18.924Z,24.50
2019-03-08T07:18:46.413Z,24.77
2019-03-08T07:21:33.398Z,25.47
2019-03-08T07:24:19.037Z,25.50
2019-03-08T07:27:04.624Z,26.30
2019-03-08T07:29:54.457Z,20.40
2019-03-08T07:32:39.188Z,23.63
2019-03-08T07:35:29.156Z,23.03
2019-03-08T07:38:10.348Z,25.13
2019-03-08T07:40:56.643Z,23.30
2019-03-08T07:43:55.557Z,23.70
2019-03-08T07:46:41.423Z,23.77
2019-03-08T07:49:31.229Z,23.67
2019-03-08T07:52:07.350Z,22.13
2019-03-08T07:54:53.311Z,22.63
2019-03-08T07:57:39.403Z,21.80
2019-03-08T08:00:29.653Z,20.57
2019-03-08T08:03:06.606Z,19.67
2019-03-08T08:05:58.094Z,17.80
2019-03-08T08:08:40.710Z,17.17
2019-03-08T08:11:26.791Z,21.43
2019-03-08T08:14:07.128Z,21.47
2019-03-08T08:16:54.101Z,20.73
2019-03-08T08:19:39.133Z,20.57
2019-03-08T08:22:26.145Z,20.90
2019-03-08T08:25:22.164Z,20.20
2019-03-08T08:28:08.281Z,19.30
2019-03-08T08:30:54.149Z,19.97
2019-03-08T08:33:41.208Z,19.40
2019-03-08T08:36:37.244Z,18.77
2019-03-08T08:39:38.289Z,19.20
2019-03-08T08:42:25.512Z,22.07
2019-03-08T08:45:15.540Z,17.43
2019-03-08T08:48:17.288Z,17.73
2019-03-08T08:50:58.815Z,15.07
2019-03-08T08:53:48.776Z,19.43
2019-03-08T08:56:34.350Z,17.17
2019-03-08T08:59:27.227Z,17.67
2019-03-08T09:02:23.457Z,18.60
2019-03-08T09:05:19.367Z,18.30
2019-03-08T09:07:55.391Z,17.63
2019-03-08T09:10:41.053Z,20.53
2019-03-08T09:13:25.843Z,19.10
2019-03-08T09:16:06.929Z,18.17
2019-03-08T09:18:47.892Z,18.43
2019-03-08T09:21:52.856Z,17.13
2019-03-08T09:24:38.777Z,16.73
2019-03-08T09:27:23.680Z,17.73
2019-03-08T09:30:06.791Z,17.93
2019-03-08T09:32:59.340Z,15.63
2019-03-08T09:35:57.806Z,13.40
2019-03-08T09:38:47.853Z,15.63
2019-03-08T09:41:37.640Z,15.73
2019-03-08T09:44:14.471Z,15.13
2019-03-08T09:46:57.497Z,14.70
2019-03-08T09:50:02.514Z,13.80
2019-03-08T09:52:47.979Z,14.03
2019-03-08T09:55:36.778Z,15.10
2019-03-08T09:58:33.842Z,15.80
2019-03-08T10:01:26.847Z,14.37
2019-03-08T10:04:01.141Z,14.93
2019-03-08T10:06:55.816Z,15.40
2019-03-08T10:09:41.798Z,14.43
2019-03-08T10:12:19.396Z,15.10
2019-03-08T10:15:01.396Z,15.03
2019-03-08T10:17:57.302Z,15.63
2019-03-08T10:20:36.727Z,15.83
2019-03-08T10:23:23.768Z,17.37
2019-03-08T10:26:15.513Z,16.67
2019-03-08T10:29:14.515Z,16.53
2019-03-08T10:32:04.469Z,17.03
2019-03-08T10:34:53.335Z,17.87
2019-03-08T10:37:52.583Z,20.70
2019-03-08T10:40:39.583Z,22.27
2019-03-08T10:43:25.257Z,19.33
2019-03-08T10:46:24.248Z,17.17
2019-03-08T10:49:07.423Z,16.70
2019-03-08T10:52:17.764Z,20.93
2019-03-08T10:55:10.461Z,16.03
2019-03-08T10:57:56.438Z,17.17
2019-03-08T11:00:31.269Z,16.07
2019-03-08T11:03:24.368Z,16.40
2019-03-08T11:05:58.612Z,16.93
2019-03-08T11:08:44.437Z,16.73
2019-03-08T11:11:34.227Z,15.63
2019-03-08T11:14:11.077Z,15.60
2019-03-08T11:16:56.648Z,15.90
2019-03-08T11:19:46.347Z,16.60
2019-03-08T11:22:32.146Z,16.10
2019-03-08T11:25:35.009Z,16.17
2019-03-08T11:28:22.701Z,15.70
2019-03-08T11:31:24.538Z,15.37
2019-03-08T11:34:10.318Z,15.80
2019-03-08T11:37:15.690Z,15.13
2019-03-08T11:40:02.672Z,16.23
2019-03-08T11:43:04.469Z,16.93
2019-03-08T11:45:54.339Z,14.60
2019-03-08T11:48:50.815Z,15.83
2019-03-08T11:51:46.581Z,15.57
2019-03-08T11:54:30.166Z,15.17
2019-03-08T11:57:23.301Z,16.53
2019-03-08T12:00:08.801Z,15.47
2019-03-08T12:02:54.367Z,12.87
2019-03-08T12:05:56.228Z,14.47
2019-03-08T12:08:52.278Z,13.97
2019-03-08T12:11:39.264Z,17.23
2019-03-08T12:14:26.328Z,14.17
2019-03-08T12:17:13.628Z,14.50
2019-03-08T12:19:57.449Z,11.70
2019-03-08T12:22:42.946Z,13.57
2019-03-08T12:25:24.008Z,11.40
2019-03-08T12:28:13.478Z,9.77
2019-03-08T12:31:00.479Z,8.40
2019-03-08T12:33:56.261Z,7.97
2019-03-08T12:36:41.989Z,8.47
2019-03-08T12:39:31.812Z,9.43
2019-03-08T12:42:22.020Z,6.37
2019-03-08T12:45:08.995Z,6.87
2019-03-08T12:47:53.777Z,6.40
2019-03-08T12:50:31.340Z,6.03
2019-03-08T12:53:16.962Z,8.77
2019-03-08T12:56:05.190Z,5.40
2019-03-08T12:58:50.954Z,7.10
2019-03-08T13:01:35.611Z,5.10
2019-03-08T13:04:22.599Z,6.53
2019-03-08T13:07:08.136Z,5.43
2019-03-08T13:09:42.002Z,5.20
2019-03-08T13:12:09.506Z,5.33
2019-03-08T13:14:36.973Z,4.53
2019-03-08T13:17:04.570Z,4.20
2019-03-08T13:19:32.941Z,4.77
2019-03-08T13:22:00.408Z,4.77
2019-03-08T13:24:27.851Z,4.40
2019-03-08T13:26:55.246Z,4.57
2019-03-08T13:29:22.715Z,6.43
2019-03-08T13:31:50.159Z,5.47
2019-03-08T13:34:17.660Z,5.50
2019-03-08T13:36:45.319Z,5.37
2019-03-08T13:39:12.949Z,5.33
2019-03-08T13:41:40.442Z,4.50
2019-03-08T13:44:07.950Z,4.93
2019-03-08T13:46:35.531Z,5.43
2019-03-08T13:49:03.013Z,4.03
2019-03-08T13:51:30.580Z,4.37
2019-03-08T13:53:58.052Z,5.07
2019-03-08T13:56:25.549Z,4.33
2019-03-08T13:58:53.149Z,4.67
2019-03-08T14:01:20.778Z,4.83
2019-03-08T14:03:48.253Z,4.90
2019-03-08T14:06:15.658Z,4.47
2019-03-08T14:08:43.593Z,4.43
2019-03-08T14:11:12.663Z,3.90
2019-03-08T14:13:40.130Z,4.30
2019-03-08T14:16:07.575Z,3.53
2019-03-08T14:18:35.123Z,4.13
2019-03-08T14:21:02.743Z,6.37
2019-03-08T14:23:30.257Z,3.40
2019-03-08T14:25:57.803Z,5.23
2019-03-08T14:28:25.298Z,4.53
2019-03-08T14:30:59.880Z,4.60
2019-03-08T14:33:27.350Z,4.50
2019-03-08T14:35:54.797Z,5.13
2019-03-08T14:38:22.372Z,5.47
2019-03-08T14:41:05.579Z,4.67
2019-03-08T14:43:52.426Z,3.67
2019-03-08T14:46:33.799Z,4.10
2019-03-08T14:49:01.806Z,4.10
2019-03-08T14:51:29.752Z,4.90
2019-03-08T14:53:57.212Z,3.93
2019-03-08T14:56:24.684Z,2.83
2019-03-08T14:58:52.341Z,3.87
2019-03-08T15:01:19.834Z,4.67
2019-03-08T15:03:47.382Z,3.60
2019-03-08T15:06:14.885Z,3.70
2019-03-08T15:08:42.437Z,3.10
2019-03-08T15:11:09.924Z,4.03
2019-03-08T15:13:37.592Z,3.73
2019-03-08T15:16:05.011Z,3.50
2019-03-08T15:18:32.533Z,4.57
2019-03-08T15:21:00.112Z,3.53
2019-03-08T15:23:27.738Z,3.37
2019-03-08T15:25:55.327Z,3.67
2019-03-08T15:28:23.029Z,3.93
2019-03-08T15:30:50.733Z,4.03
2019-03-08T15:33:18.186Z,4.23
2019-03-08T15:35:46.209Z,4.90
2019-03-08T15:38:14.090Z,5.20
2019-03-08T15:40:41.542Z,6.70
2019-03-08T15:43:09.697Z,8.43
2019-03-08T15:45:40.130Z,4.10
2019-03-08T15:48:11.006Z,3.77
2019-03-08T15:50:37.757Z,4.50
2019-03-08T15:53:05.320Z,3.60
2019-03-08T15:55:32.832Z,5.57
2019-03-08T15:58:00.483Z,3.57
2019-03-08T16:00:28.007Z,4.10
2019-03-08T16:02:55.404Z,4.00
2019-03-08T16:05:26.548Z,4.50
2019-03-08T16:07:52.640Z,4.53
2019-03-08T16:10:21.209Z,4.07
2019-03-08T16:12:48.832Z,3.90
2019-03-08T16:15:16.503Z,5.17
2019-03-08T16:17:44.023Z,5.27
2019-03-08T16:20:12.967Z,4.67
2019-03-08T16:22:40.617Z,4.03
2019-03-08T16:25:10.155Z,5.23
2019-03-08T16:27:37.883Z,4.80
2019-03-08T16:30:10.748Z,5.00
2019-03-08T16:32:47.600Z,6.00
2019-03-08T16:35:15.085Z,6.57
2019-03-08T16:38:00.899Z,6.30
2019-03-08T16:40:48.046Z,5.77
2019-03-08T16:43:42.168Z,5.73
2019-03-08T16:46:36.165Z,5.80
2019-03-08T16:49:14.677Z,6.27
2019-03-08T16:51:57.407Z,5.90
2019-03-08T16:54:43.039Z,6.87
2019-03-08T16:57:48.254Z,6.50
2019-03-08T17:00:32.676Z,6.93
2019-03-08T17:03:25.473Z,7.93
2019-03-08T17:06:15.477Z,8.03
2019-03-08T17:08:56.317Z,7.77
2019-03-08T17:11:41.619Z,7.07
2019-03-08T17:14:37.832Z,6.63
2019-03-08T17:17:19.275Z,6.87
2019-03-08T17:19:55.318Z,6.40
2019-03-08T17:22:35.612Z,7.70
2019-03-08T17:25:26.509Z,6.87
2019-03-08T17:28:04.472Z,6.53
2019-03-08T17:30:50.044Z,7.47
2019-03-08T17:33:35.658Z,17.97
2019-03-08T17:36:30.066Z,7.37
2019-03-08T17:39:04.170Z,9.73
2019-03-08T17:41:41.572Z,5.87
2019-03-08T17:44:27.216Z,6.23
2019-03-08T17:47:09.058Z,6.53
2019-03-08T17:50:01.954Z,6.50
2019-03-08T17:52:48.972Z,6.67
2019-03-08T17:55:54.400Z,6.30
2019-03-08T17:58:32.885Z,6.97
2019-03-08T18:01:18.732Z,17.80
2019-03-08T18:04:08.456Z,11.53
2019-03-08T18:06:43.360Z,8.40
2019-03-08T18:09:33.579Z,9.07
2019-03-08T18:12:19.394Z,8.87
2019-03-08T18:14:57.985Z,9.37
2019-03-08T18:17:57.270Z,14.73
2019-03-08T18:20:46.284Z,14.67
2019-03-08T18:23:36.253Z,15.80
2019-03-08T18:26:24.273Z,15.93
2019-03-08T18:29:29.748Z,17.63
2019-03-08T18:32:05.093Z,10.50
2019-03-08T18:35:10.429Z,8.50
2019-03-08T18:38:16.164Z,9.57
2019-03-08T18:41:15.305Z,12.53
2019-03-08T18:44:05.441Z,16.70
2019-03-08T18:46:55.648Z,15.17
2019-03-08T18:49:45.836Z,16.17
2019-03-08T18:52:32.574Z,18.13
2019-03-08T18:55:09.882Z,15.10
2019-03-08T18:58:15.052Z,11.83
2019-03-08T19:01:02.012Z,20.37
2019-03-08T19:03:57.943Z,21.67
2019-03-08T19:06:44.462Z,18.77
2019-03-08T19:09:49.896Z,14.27
2019-03-08T19:12:35.496Z,12.23
2019-03-08T19:15:31.437Z,13.40
2019-03-08T19:18:21.172Z,13.37
2019-03-08T19:21:06.374Z,14.63
2019-03-08T19:23:42.347Z,13.03
2019-03-08T19:26:25.423Z,15.37
2019-03-08T19:29:06.405Z,14.97
2019-03-08T19:32:03.198Z,15.40
2019-03-08T19:34:59.603Z,14.33
2019-03-08T19:38:01.967Z,16.40
2019-03-08T19:40:50.520Z,16.20
2019-03-08T19:43:36.305Z,16.57
2019-03-08T19:46:29.952Z,15.90
2019-03-08T19:49:17.112Z,14.90
2019-03-08T19:52:08.638Z,14.50
2019-03-08T19:54:58.648Z,16.67
2019-03-08T19:57:39.544Z,15.77
2019-03-08T20:00:26.606Z,14.83
2019-03-08T20:03:17.397Z,15.97
2019-03-08T20:06:01.411Z,15.63
2019-03-08T20:08:39.840Z,14.37
2019-03-08T20:11:42.019Z,15.57
2019-03-08T20:14:31.788Z,14.47
2019-03-08T20:17:22.191Z,14.93
2019-03-08T20:20:08.104Z,15.50
2019-03-08T20:22:44.963Z,13.77
2019-03-08T20:25:38.066Z,14.50
2019-03-08T20:28:14.158Z,14.23
2019-03-08T20:31:13.434Z,15.33
2019-03-08T20:34:06.450Z,16.60
2019-03-08T20:36:53.531Z,17.40
2019-03-08T20:39:30.759Z,16.60
2019-03-08T20:42:20.675Z,15.40
2019-03-08T20:45:02.885Z,12.33
2019-03-08T20:47:31.762Z,15.70
2019-03-08T20:49:59.507Z,18.00
2019-03-08T20:52:27.252Z,18.13
2019-03-08T20:54:54.799Z,15.73
2019-03-08T20:57:22.247Z,17.70
2019-03-08T20:59:49.778Z,18.80
2019-03-08T21:02:17.340Z,18.37
2019-03-08T21:04:45.022Z,17.30
2019-03-08T21:07:12.467Z,18.20
2019-03-08T21:09:40.017Z,19.90
2019-03-08T21:12:07.660Z,17.53
2019-03-08T21:14:35.986Z,19.17
2019-03-08T21:17:03.684Z,18.07
2019-03-08T21:19:31.539Z,18.13
2019-03-08T21:21:59.194Z,17.17
2019-03-08T21:24:26.675Z,17.40
2019-03-08T21:26:54.067Z,18.70
2019-03-08T21:29:21.663Z,18.10
2019-03-08T21:31:49.246Z,18.73
2019-03-08T21:34:16.956Z,17.97
2019-03-08T21:36:44.475Z,19.90
2019-03-08T21:39:12.170Z,17.10
2019-03-08T21:41:39.660Z,18.53
2019-03-08T21:44:07.151Z,19.90
2019-03-08T21:46:34.583Z,18.23
2019-03-08T21:49:02.598Z,14.03
2019-03-08T21:51:30.072Z,15.60
2019-03-08T21:53:58.147Z,14.40
2019-03-08T21:56:25.644Z,15.03
2019-03-08T21:58:53.249Z,12.10
2019-03-08T22:01:20.799Z,12.27
2019-03-08T22:03:55.078Z,12.57
2019-03-08T22:06:23.113Z,13.30
2019-03-08T22:08:59.661Z,13.50
2019-03-08T22:11:38.442Z,13.67
2019-03-08T22:14:05.868Z,13.43
2019-03-08T22:16:33.281Z,13.87
2019-03-08T22:19:00.779Z,13.93
2019-03-08T22:21:28.292Z,15.33
2019-03-08T22:23:55.721Z,14.40
2019-03-08T22:26:23.228Z,19.10
2019-03-08T22:28:50.741Z,15.23
2019-03-08T22:31:18.212Z,15.80
2019-03-08T22:33:45.676Z,15.37
2019-03-08T22:36:13.464Z,13.67
2019-03-08T22:38:40.944Z,17.43
2019-03-08T22:41:08.779Z,15.80
2019-03-08T22:43:36.259Z,15.17
2019-03-08T22:46:03.875Z,12.17
2019-03-08T22:48:31.323Z,13.60
2019-03-08T22:50:58.809Z,11.97
2019-03-08T22:53:26.295Z,12.07
2019-03-08T22:55:54.740Z,12.97
2019-03-08T22:58:22.301Z,12.60
2019-03-08T23:01:09.433Z,14.10
2019-03-08T23:03:37.004Z,14.90
2019-03-08T23:06:04.838Z,13.30
2019-03-08T23:08:32.270Z,13.33
2019-03-08T23:10:59.884Z,14.50
2019-03-08T23:13:27.395Z,13.80
2019-03-08T23:15:54.974Z,16.50
2019-03-08T23:18:22.480Z,15.00
2019-03-08T23:20:49.923Z,16.57
2019-03-08T23:23:17.382Z,17.10
2019-03-08T23:25:44.847Z,15.93
2019-03-08T23:28:49.937Z,16.63
2019-03-08T23:31:22.885Z,19.67
2019-03-08T23:33:50.373Z,17.57
2019-03-08T23:36:17.867Z,19.03
2019-03-08T23:38:45.261Z,19.67
2019-03-08T23:41:12.765Z,15.60
2019-03-08T23:43:40.264Z,19.23
2019-03-08T23:46:07.692Z,17.47
2019-03-08T23:48:35.189Z,17.03
2019-03-08T23:51:02.726Z,17.07
2019-03-08T23:53:30.822Z,14.10
2019-03-08T23:55:58.318Z,8.63
2019-03-08T23:58:25.878Z,7.40
